KBCT/BCT METAR and TAF weather

Enter ICAO airport designator
Station Type Date Time Source
KBCT METAR 2018/07/21 10:47 UTC NOAA

KBCT 211047Z 26003KT 10SM CLR 26/24 A2999


Station Type Date Time Source
KBCT Decoded METAR 2018/07/21 10:47 UTC NOAA

Boca Raton, Boca Raton Airport, FL, United States (KBCT) 26-22-43N 080-06-28W
Jul 21, 2018 - 06:47 AM EDT / 2018.07.21 1047 UTC
Wind: from the W (260 degrees) at 3 MPH (3 KT):0
Visibility: 10 mile(s):0
Sky conditions: clear
Temperature: 78 F (26 C)
Dew Point: 75 F (24 C)
Relative Humidity: 88%
Pressure (altimeter): 29.99 in. Hg (1015 hPa)
ob: KBCT 211047Z 26003KT 10SM CLR 26/24 A2999
cycle: 11

Station Type Date Time Source
KBCT TAF UTC NOAA

Error!


Example: see airport list